sensor_id;sensor_type;location;lat;lon;timestamp;P1;durP1;ratioP1;P2;durP2;ratioP2
15230;SDS011;32569;51.762;8.564;2023-05-07T18:17:22;12.27;;;11.17;;
15230;SDS011;32569;51.762;8.564;2023-05-07T18:19:50;11.80;;;10.80;;
15230;SDS011;32569;51.762;8.564;2023-05-07T18:22:17;12.30;;;11.30;;
15230;SDS011;32569;51.762;8.564;2023-05-07T18:24:44;12.47;;;11.27;;
15230;SDS011;32569;51.762;8.564;2023-05-07T18:27:11;12.07;;;10.97;;
15230;SDS011;32569;51.762;8.564;2023-05-07T18:29:38;11.53;;;10.50;;
15230;SDS011;32569;51.762;8.564;2023-05-07T18:32:05;12.30;;;11.20;;
15230;SDS011;32569;51.762;8.564;2023-05-07T18:34:33;11.77;;;10.77;;
15230;SDS011;32569;51.762;8.564;2023-05-07T18:37:00;12.00;;;10.90;;
15230;SDS011;32569;51.762;8.564;2023-05-07T18:39:27;11.73;;;10.73;;
15230;SDS011;32569;51.762;8.564;2023-05-07T18:41:54;13.27;;;12.17;;
15230;SDS011;32569;51.762;8.564;2023-05-07T18:44:21;11.47;;;10.47;;
15230;SDS011;32569;51.762;8.564;2023-05-07T18:46:48;11.90;;;10.80;;
15230;SDS011;32569;51.762;8.564;2023-05-07T18:49:15;11.43;;;10.53;;
15230;SDS011;32569;51.762;8.564;2023-05-07T18:51:43;12.70;;;11.60;;
15230;SDS011;32569;51.762;8.564;2023-05-07T18:54:10;11.53;;;10.50;;
15230;SDS011;32569;51.762;8.564;2023-05-07T18:56:37;12.30;;;11.10;;
15230;SDS011;32569;51.762;8.564;2023-05-07T18:59:03;11.23;;;10.30;;
15230;SDS011;32569;51.762;8.564;2023-05-07T19:01:30;12.23;;;11.13;;
15230;SDS011;32569;51.762;8.564;2023-05-07T19:03:57;12.47;;;11.27;;
15230;SDS011;32569;51.762;8.564;2023-05-07T19:06:24;12.57;;;11.50;;
15230;SDS011;32569;51.762;8.564;2023-05-07T19:08:52;11.70;;;10.70;;
15230;SDS011;32569;51.762;8.564;2023-05-07T19:11:18;11.87;;;10.87;;
15230;SDS011;32569;51.762;8.564;2023-05-07T19:13:45;12.27;;;11.07;;
15230;SDS011;32569;51.762;8.564;2023-05-07T19:16:12;11.90;;;10.90;;
15230;SDS011;32569;51.762;8.564;2023-05-07T19:18:39;11.90;;;10.90;;
15230;SDS011;32569;51.762;8.564;2023-05-07T19:21:06;13.00;;;11.90;;
15230;SDS011;32569;51.762;8.564;2023-05-07T19:23:33;12.57;;;11.47;;
15230;SDS011;32569;51.762;8.564;2023-05-07T19:26:06;11.50;;;10.57;;
15230;SDS011;32569;51.762;8.564;2023-05-07T19:28:34;11.83;;;10.83;;
15230;SDS011;32569;51.762;8.564;2023-05-07T19:31:00;12.10;;;11.03;;
15230;SDS011;32569;51.762;8.564;2023-05-07T19:33:27;11.17;;;10.23;;
15230;SDS011;32569;51.762;8.564;2023-05-07T19:35:54;11.73;;;10.63;;
15230;SDS011;32569;51.762;8.564;2023-05-07T19:38:22;10.77;;;9.87;;
15230;SDS011;32569;51.762;8.564;2023-05-07T19:40:49;14.13;;;9.93;;
15230;SDS011;32569;51.762;8.564;2023-05-07T19:43:18;10.30;;;9.40;;
15230;SDS011;32569;51.762;8.564;2023-05-07T19:45:45;10.30;;;9.30;;
15230;SDS011;32569;51.762;8.564;2023-05-07T19:48:12;10.03;;;9.07;;
15230;SDS011;32569;51.762;8.564;2023-05-07T19:50:38;10.63;;;9.73;;
15230;SDS011;32569;51.762;8.564;2023-05-07T19:53:05;10.13;;;9.33;;
15230;SDS011;32569;51.762;8.564;2023-05-07T19:55:32;10.67;;;9.77;;
15230;SDS011;32569;51.762;8.564;2023-05-07T19:57:58;11.20;;;10.20;;
15230;SDS011;32569;51.762;8.564;2023-05-07T20:00:26;10.57;;;9.67;;
15230;SDS011;32569;51.762;8.564;2023-05-07T20:02:56;10.27;;;9.47;;
15230;SDS011;32569;51.762;8.564;2023-05-07T20:05:23;10.50;;;9.60;;
15230;SDS011;32569;51.762;8.564;2023-05-07T20:07:51;10.50;;;9.60;;
15230;SDS011;32569;51.762;8.564;2023-05-07T20:10:18;10.83;;;9.93;;
15230;SDS011;32569;51.762;8.564;2023-05-07T20:12:45;10.20;;;9.40;;
15230;SDS011;32569;51.762;8.564;2023-05-07T20:15:12;9.57;;;8.77;;
15230;SDS011;32569;51.762;8.564;2023-05-07T20:17:40;9.87;;;9.17;;
15230;SDS011;32569;51.762;8.564;2023-05-07T20:20:08;9.83;;;8.83;;
15230;SDS011;32569;51.762;8.564;2023-05-07T20:22:35;9.53;;;8.73;;
15230;SDS011;32569;51.762;8.564;2023-05-07T20:25:02;9.50;;;8.80;;
15230;SDS011;32569;51.762;8.564;2023-05-07T20:27:30;8.83;;;8.13;;
15230;SDS011;32569;51.762;8.564;2023-05-07T20:29:59;9.57;;;8.67;;
15230;SDS011;32569;51.762;8.564;2023-05-07T20:32:25;9.17;;;8.40;;
15230;SDS011;32569;51.762;8.564;2023-05-07T20:34:53;9.83;;;9.00;;
15230;SDS011;32569;51.762;8.564;2023-05-07T20:37:20;9.30;;;8.50;;
15230;SDS011;32569;51.762;8.564;2023-05-07T20:39:47;8.67;;;7.97;;
15230;SDS011;32569;51.762;8.564;2023-05-07T20:42:13;9.20;;;8.43;;
15230;SDS011;32569;51.762;8.564;2023-05-07T20:44:40;8.67;;;7.97;;
15230;SDS011;32569;51.762;8.564;2023-05-07T20:47:07;8.90;;;8.20;;
15230;SDS011;32569;51.762;8.564;2023-05-07T20:49:34;8.80;;;8.10;;
15230;SDS011;32569;51.762;8.564;2023-05-07T20:52:02;9.50;;;8.60;;
15230;SDS011;32569;51.762;8.564;2023-05-07T20:54:30;8.73;;;8.03;;
15230;SDS011;32569;51.762;8.564;2023-05-07T20:56:56;9.00;;;8.30;;
15230;SDS011;32569;51.762;8.564;2023-05-07T20:59:24;8.67;;;7.97;;
15230;SDS011;32569;51.762;8.564;2023-05-07T21:01:50;9.40;;;8.70;;
15230;SDS011;32569;51.762;8.564;2023-05-07T21:04:18;9.03;;;8.27;;
15230;SDS011;32569;51.762;8.564;2023-05-07T21:06:45;8.43;;;7.73;;
15230;SDS011;32569;51.762;8.564;2023-05-07T21:09:13;8.57;;;7.87;;
15230;SDS011;32569;51.762;8.564;2023-05-07T21:11:40;9.63;;;8.73;;
15230;SDS011;32569;51.762;8.564;2023-05-07T21:14:06;9.43;;;8.63;;
15230;SDS011;32569;51.762;8.564;2023-05-07T21:16:33;10.20;;;9.30;;
15230;SDS011;32569;51.762;8.564;2023-05-07T21:19:00;9.37;;;8.47;;
15230;SDS011;32569;51.762;8.564;2023-05-07T21:21:27;8.73;;;8.03;;
15230;SDS011;32569;51.762;8.564;2023-05-07T21:23:54;9.57;;;8.77;;
15230;SDS011;32569;51.762;8.564;2023-05-07T21:26:22;9.40;;;8.60;;
15230;SDS011;32569;51.762;8.564;2023-05-07T21:28:48;9.37;;;8.50;;
15230;SDS011;32569;51.762;8.564;2023-05-07T21:31:15;8.80;;;8.00;;
15230;SDS011;32569;51.762;8.564;2023-05-07T21:33:42;8.43;;;7.77;;
15230;SDS011;32569;51.762;8.564;2023-05-07T21:36:09;9.43;;;8.63;;
15230;SDS011;32569;51.762;8.564;2023-05-07T21:38:36;8.93;;;8.23;;
15230;SDS011;32569;51.762;8.564;2023-05-07T21:41:03;9.93;;;9.03;;
15230;SDS011;32569;51.762;8.564;2023-05-07T21:43:31;9.30;;;8.40;;
15230;SDS011;32569;51.762;8.564;2023-05-07T21:45:58;8.80;;;8.10;;
15230;SDS011;32569;51.762;8.564;2023-05-07T21:48:27;9.17;;;8.30;;
15230;SDS011;32569;51.762;8.564;2023-05-07T21:51:00;8.63;;;7.83;;
15230;SDS011;32569;51.762;8.564;2023-05-07T21:53:28;9.47;;;8.67;;
15230;SDS011;32569;51.762;8.564;2023-05-07T21:55:55;9.23;;;8.43;;
15230;SDS011;32569;51.762;8.564;2023-05-07T21:58:24;9.10;;;8.30;;
15230;SDS011;32569;51.762;8.564;2023-05-07T22:00:52;8.93;;;7.70;;
15230;SDS011;32569;51.762;8.564;2023-05-07T22:03:18;8.77;;;7.87;;
15230;SDS011;32569;51.762;8.564;2023-05-07T22:05:45;8.77;;;7.97;;
15230;SDS011;32569;51.762;8.564;2023-05-07T22:08:12;9.20;;;8.30;;
15230;SDS011;32569;51.762;8.564;2023-05-07T22:10:39;9.07;;;8.37;;
15230;SDS011;32569;51.762;8.564;2023-05-07T22:13:05;9.10;;;8.30;;
15230;SDS011;32569;51.762;8.564;2023-05-07T22:15:32;8.53;;;7.80;;
15230;SDS011;32569;51.762;8.564;2023-05-07T22:18:00;9.30;;;8.53;;
15230;SDS011;32569;51.762;8.564;2023-05-07T22:20:27;8.10;;;7.40;;
15230;SDS011;32569;51.762;8.564;2023-05-07T22:22:54;9.00;;;8.20;;
15230;SDS011;32569;51.762;8.564;2023-05-07T22:25:21;9.60;;;8.80;;
15230;SDS011;32569;51.762;8.564;2023-05-07T22:27:49;8.23;;;7.53;;
15230;SDS011;32569;51.762;8.564;2023-05-07T22:30:15;9.60;;;8.60;;
15230;SDS011;32569;51.762;8.564;2023-05-07T22:32:42;8.40;;;7.70;;
15230;SDS011;32569;51.762;8.564;2023-05-07T22:35:11;9.47;;;8.53;;
15230;SDS011;32569;51.762;8.564;2023-05-07T22:37:38;8.37;;;7.57;;
15230;SDS011;32569;51.762;8.564;2023-05-07T22:40:08;8.80;;;8.03;;
15230;SDS011;32569;51.762;8.564;2023-05-07T22:42:35;8.97;;;8.10;;
15230;SDS011;32569;51.762;8.564;2023-05-07T22:45:01;8.43;;;7.73;;
15230;SDS011;32569;51.762;8.564;2023-05-07T22:47:28;7.93;;;7.23;;
15230;SDS011;32569;51.762;8.564;2023-05-07T22:49:55;8.10;;;7.43;;
15230;SDS011;32569;51.762;8.564;2023-05-07T22:52:23;8.90;;;8.10;;
15230;SDS011;32569;51.762;8.564;2023-05-07T22:54:50;8.50;;;7.80;;
15230;SDS011;32569;51.762;8.564;2023-05-07T22:57:16;8.20;;;7.50;;
15230;SDS011;32569;51.762;8.564;2023-05-07T22:59:43;8.40;;;7.70;;
15230;SDS011;32569;51.762;8.564;2023-05-07T23:02:10;9.17;;;8.00;;
15230;SDS011;32569;51.762;8.564;2023-05-07T23:04:36;9.10;;;8.20;;
15230;SDS011;32569;51.762;8.564;2023-05-07T23:07:03;8.87;;;8.07;;
15230;SDS011;32569;51.762;8.564;2023-05-07T23:09:31;9.23;;;8.43;;
15230;SDS011;32569;51.762;8.564;2023-05-07T23:11:58;8.37;;;7.67;;
15230;SDS011;32569;51.762;8.564;2023-05-07T23:14:25;8.17;;;7.47;;
15230;SDS011;32569;51.762;8.564;2023-05-07T23:16:51;8.47;;;7.70;;
15230;SDS011;32569;51.762;8.564;2023-05-07T23:19:18;9.30;;;8.40;;
15230;SDS011;32569;51.762;8.564;2023-05-07T23:21:44;8.63;;;7.83;;
15230;SDS011;32569;51.762;8.564;2023-05-07T23:24:11;8.37;;;7.67;;
15230;SDS011;32569;51.762;8.564;2023-05-07T23:26:39;8.53;;;7.83;;
15230;SDS011;32569;51.762;8.564;2023-05-07T23:29:06;9.63;;;8.73;;
15230;SDS011;32569;51.762;8.564;2023-05-07T23:31:32;7.90;;;7.20;;
15230;SDS011;32569;51.762;8.564;2023-05-07T23:33:59;9.40;;;8.63;;
15230;SDS011;32569;51.762;8.564;2023-05-07T23:36:26;9.57;;;8.77;;
15230;SDS011;32569;51.762;8.564;2023-05-07T23:38:53;8.83;;;8.03;;
15230;SDS011;32569;51.762;8.564;2023-05-07T23:41:19;9.07;;;8.27;;
15230;SDS011;32569;51.762;8.564;2023-05-07T23:43:47;9.00;;;8.17;;
15230;SDS011;32569;51.762;8.564;2023-05-07T23:46:17;8.93;;;8.13;;
15230;SDS011;32569;51.762;8.564;2023-05-07T23:48:43;8.83;;;7.93;;
15230;SDS011;32569;51.762;8.564;2023-05-07T23:51:10;9.23;;;8.43;;
15230;SDS011;32569;51.762;8.564;2023-05-07T23:53:36;9.00;;;8.17;;
15230;SDS011;32569;51.762;8.564;2023-05-07T23:56:03;8.60;;;7.90;;
15230;SDS011;32569;51.762;8.564;2023-05-07T23:58:31;8.37;;;7.67;;
